• Join FlightAware (Why Join?)
  • Login
  • US Flag 
01:20PM EDT


 

Airport Tracker/Info


-or-


 

Live Flight TrackerFlight Track Log ✈ AWE874 ✈ 28-Apr-2013 ✈ KCLT - TNCA / AUA

Flight Track Log - Related Links

Times and Time Zones

All times are in EDT time to prevent confusion due to time zone crossing. See the AWE874 flight status page for this flight to view local times or setup timezone preferences in your user account.

Time Position Orientation Groundspeed Altitude Reporting Facility
EDT Latitude Longitude Course Direction KTS MPH feet Rate Location/Type
10:10AM 35.1992 -80.9378 193° South 157 181 1,500  Level Atlanta Center
10:11AM 35.1719 -80.9339 173° South 153 176 2,700 1,860 Climbing Atlanta Center
10:11AM 35.1258 -80.9281 174° South 220 253 4,000 1,920 Climbing Atlanta Center
10:12AM 35.0611 -80.9178 173° South 236 272 6,100 2,160 Climbing Atlanta Center
10:13AM 34.8607 -80.7372 175° South  Level Estimated
10:14AM 34.7430 -80.6670 180° South  Level Estimated
10:15AM 34.6252 -80.5970 165° South  Level Estimated
10:15AM 34.9075 -80.9031 176° South 277 319 10,900  Level Jacksonville Center
10:16AM 34.5073 -80.5272 193° South  Level Estimated
10:16AM 34.8219 -80.9025 180° South 298 343 13,000  Level Jacksonville Center
10:17AM 34.7303 -80.8994 178° South 320 368 15,100 2,100 Climbing Jacksonville Center
10:18AM 34.6386 -80.9092 185° South 332 382 17,200 1,800 Climbing Jacksonville Center
10:19AM 34.5406 -80.9139 182° South 348 400 18,700 1,560 Climbing Jacksonville Center
10:20AM 34.4428 -80.9211 183° South 348 400 20,400 1,620 Climbing Jacksonville Center
10:21AM 34.3342 -80.9186 179° South 348 400 22,000 1,260 Climbing Jacksonville Center
10:22AM 34.2319 -80.9183 180° South 359 413 23,000 660 Climbing Jacksonville Center
10:23AM 34.1278 -80.9258 183° South 367 422 23,400 960 Climbing Jacksonville Center
10:24AM 34.0214 -80.9308 182° South 374 430 25,000 1,440 Climbing Jacksonville Center
10:25AM 33.9108 -80.9356 182° South 386 444 26,300 1,140 Climbing Jacksonville Center
10:26AM 33.8006 -80.9406 182° South 391 450 27,300 840 Climbing Jacksonville Center
10:27AM 33.6878 -80.9456 182° South 397 457 28,000 300 Climbing Jacksonville Center
10:28AM 33.5689 -80.9508 182° South 414 476 28,000  Level Jacksonville Center
10:29AM 33.4417 -80.9561 182° South 433 498 28,000  Level Jacksonville Center
10:30AM 33.3167 -80.9586 181° South 447 514 28,000  Level Jacksonville Center
10:31AM 33.1914 -80.9664 183° South 452 520 28,000  Level Jacksonville Center
10:32AM 33.0767 -80.9689 181° South 459 528 28,000  Level Jacksonville Center
10:33AM 32.9536 -80.9739 182° South 459 528 28,000  Level Jacksonville Center
10:34AM 32.8283 -80.9767 181° South 459 528 28,000  Level Jacksonville Center
10:35AM 32.7011 -80.9842 183° South 459 528 28,000  Level Jacksonville Center
10:36AM 32.5761 -80.9894 182° South 459 528 28,000  Level Jacksonville Center
10:37AM 32.4489 -80.9944 182° South 459 528 28,000  Level Jacksonville Center
10:38AM 32.3111 -80.9997 182° South 459 528 28,000  Level Jacksonville Center
10:39AM 32.1983 -81.0047 182° South 454 522 28,000  Level Jacksonville Center
10:40AM 32.0583 -80.9878 174° South 459 528 28,000  Level Jacksonville Center
10:41AM 31.9267 -80.9736 175° South 468 539 28,000  Level Jacksonville Center
10:42AM 31.8114 -80.9611 175° South 463 533 28,000  Level Jacksonville Center
10:43AM 31.6714 -80.9444 174° South 461 531 28,000  Level Jacksonville Center
10:44AM 31.5417 -80.9278 174° South 471 542 28,000  Level Jacksonville Center
10:45AM 31.4100 -80.9111 174° South 466 536 28,000  Level Jacksonville Center
10:46AM 31.2908 -80.9014 176° South 472 543 28,000  Level Jacksonville Center
10:47AM 31.1611 -80.8872 175° South 472 543 28,000  Level Jacksonville Center
10:48AM 31.0314 -80.8731 175° South 472 543 28,000  Level Jacksonville Center
10:49AM 30.9081 -80.8564 173° South 472 543 28,000  Level Jacksonville Center
10:50AM 30.7761 -80.8422 175° South 472 543 28,000  Level Jacksonville Center
10:51AM 30.6486 -80.8256 174° South 467 537 28,000  Level Jacksonville Center
10:52AM 30.5189 -80.8092 174° South 467 537 28,000  Level Jacksonville Center
10:53AM 30.3892 -80.7975 176° South 467 537 28,000  Level Jacksonville Center
10:54AM 30.2617 -80.7811 174° South 467 537 28,000  Level Jacksonville Center
10:55AM 30.1319 -80.7672 175° South 467 537 28,000  Level Jacksonville Center
10:56AM 30.0022 -80.7531 175° South 467 537 28,000  Level Jacksonville Center
10:57AM 29.8725 -80.7369 174° South 467 537 28,000  Level Jacksonville Center
10:58AM 29.7325 -80.7233 175° South 467 537 28,000  Level Jacksonville Center
10:59AM 29.6006 -80.7094 175° South 467 537 28,100 540 Climbing Jacksonville Center
11:00AM 29.4708 -80.6933 174° South 467 537 29,100 900 Climbing Jacksonville Center
11:01AM 29.3433 -80.6769 174° South 467 537 29,900 600 Climbing Jacksonville Center
11:01AM 29.2889 -80.6750 178° South 464 534 30,000 60 Climbing Miami Center
11:02AM 29.1578 -80.6583 174° South 464 534 30,000  Level Miami Center
11:03AM 29.0247 -80.6444 175° South 474 545 30,000  Level Miami Center
11:04AM 28.8981 -80.6258 173° South 479 551 30,000  Level Miami Center
11:05AM 28.7772 -80.6147 175° South 477 549 30,000  Level Miami Center
11:06AM 28.6483 -80.6008 175° South 477 549 30,000 300 Level Miami Center
11:07AM 28.5047 -80.5842 174° South 477 549 30,600 660 Climbing Miami Center
11:08AM 28.3986 -80.5714 174° South 477 549 31,400 660 Climbing Miami Center
11:09AM 28.2511 -80.5522 173° South 483 556 32,000 300 Climbing Miami Center
11:10AM 28.1178 -80.5408 176° South 483 556 32,000  Level Miami Center
11:11AM 27.9867 -80.5247 174° South 483 556 32,000  Level Miami Center
11:12AM 27.8536 -80.5089 174° South 478 550 32,000  Level Miami Center
11:13AM 27.7183 -80.4881 172° South 478 550 32,000  Level Miami Center
11:14AM 27.5922 -80.4394 161° South 478 550 32,000  Level Miami Center
11:15AM 27.4728 -80.3703 153° Southeast 478 550 32,000  Level Miami Center
11:16AM 27.3467 -80.3197 160° South 478 550 32,000  Level Miami Center
11:17AM 27.2247 -80.2739 162° South 478 550 32,000 -60 Level Miami Center
11:18AM 27.1006 -80.2261 161° South 478 550 31,900  Descending Miami Center
11:19AM 26.9742 -80.1758 160° South 478 550 32,000  Climbing Miami Center
11:20AM 26.8500 -80.1281 161° South 478 550 32,000 420 Level Miami Center
11:21AM 26.7278 -80.0828 162° South 478 550 32,900 480 Climbing Miami Center
11:22AM 26.5911 -80.0303 161° South 478 550 33,000  Climbing Miami Center
11:23AM 26.4792 -79.9878 161° South 473 544 33,000  Level Miami Center
11:24AM 26.3425 -79.9353 161° South 473 544 33,000 -60 Level Miami Center
11:25AM 26.2328 -79.8933 161° South 473 544 32,900  Descending Miami Center
11:26AM 26.1125 -79.8486 162° South 468 539 33,000  Climbing Miami Center
11:27AM 25.9881 -79.7992 160° South 468 539 33,000  Level Miami Center
11:28AM 25.8636 -79.7614 165° South 468 539 33,000  Level Miami Center
11:29AM 25.7408 -79.7308 167° South 462 532 33,000  Level Miami Center
11:30AM 25.6142 -79.6978 167° South 457 526 33,000  Level Miami Center
11:31AM 25.4892 -79.6672 168° South 457 526 33,000  Level Miami Center
11:32AM 25.3667 -79.6369 167° South 457 526 33,000  Level Miami Center
11:33AM 25.2419 -79.6042 167° South 457 526 33,000  Level Miami Center
11:34AM 25.1150 -79.5739 168° South 462 532 33,000  Level Miami Center
11:35AM 24.9903 -79.5414 167° South 462 532 33,000  Level Miami Center
11:36AM 24.8653 -79.5111 168° South 467 537 33,000  Level Miami Center
11:37AM 24.7303 -79.4761 167° South 462 532 33,000  Level Miami Center
11:38AM 24.6053 -79.4461 168° South 468 539 33,000 -60 Level Miami Center
11:39AM 24.4783 -79.4161 168° South 468 539 32,900  Descending Miami Center
11:40AM 24.3558 -79.3817 166° South 468 539 33,000  Climbing Miami Center
11:41AM 24.2289 -79.3517 168° South 468 539 33,000  Level Miami Center
11:42AM 24.1017 -79.3219 168° South 468 539 33,000  Level Miami Center
11:43AM 23.9769 -79.2922 168° South 468 539 33,000  Level Miami Center
11:45AM 23.7994 -79.2108 157° South  Level FlightAware Approximate
11:52AM 22.9675 -78.9290 173° South  Level FlightAware Approximate
11:53AM 22.8442 -78.9124 173° South  Level FlightAware Approximate
11:54AM 22.7210 -78.8959 173° South  Level FlightAware Approximate
11:55AM 22.5977 -78.8795 173° South  Level FlightAware Approximate
11:56AM 22.4745 -78.8630 173° South  Level FlightAware Approximate
11:57AM 22.3512 -78.8466 173° South  Level FlightAware Approximate
11:58AM 22.2280 -78.8302 173° South  Level FlightAware Approximate
11:59AM 22.1047 -78.8139 173° South  Level FlightAware Approximate
12:00PM 21.9831 -78.7914 155° Southeast  Level FlightAware Approximate
12:01PM 21.8708 -78.7343 155° Southeast  Level FlightAware Approximate
12:02PM 21.7585 -78.6772 155° Southeast  Level FlightAware Approximate
12:03PM 21.6461 -78.6203 155° Southeast  Level FlightAware Approximate
12:04PM 21.5338 -78.5634 155° Southeast  Level FlightAware Approximate
12:05PM 21.4214 -78.5066 155° Southeast  Level FlightAware Approximate
12:06PM 21.3090 -78.4499 155° Southeast  Level FlightAware Approximate
12:07PM 21.1966 -78.3933 155° Southeast  Level FlightAware Approximate
12:08PM 21.0841 -78.3368 155° Southeast  Level FlightAware Approximate
12:09PM 20.9717 -78.2804 155° Southeast  Level FlightAware Approximate
12:10PM 20.8592 -78.2240 155° Southeast  Level FlightAware Approximate
12:11PM 20.7467 -78.1678 155° Southeast  Level FlightAware Approximate
12:12PM 20.6342 -78.1116 155° Southeast  Level FlightAware Approximate
12:13PM 20.5217 -78.0555 155° Southeast  Level FlightAware Approximate
12:14PM 20.4091 -77.9995 155° Southeast  Level FlightAware Approximate
12:15PM 20.2965 -77.9436 155° Southeast  Level FlightAware Approximate
12:16PM 20.1839 -77.8877 155° Southeast  Level FlightAware Approximate
12:17PM 20.0713 -77.8319 155° Southeast  Level FlightAware Approximate
12:18PM 19.9587 -77.7762 155° Southeast  Level FlightAware Approximate
12:19PM 19.8461 -77.7206 155° Southeast  Level FlightAware Approximate
12:20PM 19.7334 -77.6651 155° Southeast  Level FlightAware Approximate
12:21PM 19.6208 -77.6096 155° Southeast  Level FlightAware Approximate
12:22PM 19.5081 -77.5541 155° Southeast  Level FlightAware Approximate
12:23PM 19.3958 -77.4979 155° Southeast  Level FlightAware Approximate
12:24PM 19.2834 -77.4419 155° Southeast  Level FlightAware Approximate
12:25PM 19.1711 -77.3859 155° Southeast  Level FlightAware Approximate
12:26PM 19.0587 -77.3300 155° Southeast  Level FlightAware Approximate
12:27PM 18.9463 -77.2742 155° Southeast  Level FlightAware Approximate
12:28PM 18.8339 -77.2184 155° Southeast  Level FlightAware Approximate
12:29PM 18.7214 -77.1628 155° Southeast  Level FlightAware Approximate
12:30PM 18.6089 -77.1072 155° Southeast  Level FlightAware Approximate
12:31PM 18.4965 -77.0516 155° Southeast  Level FlightAware Approximate
12:32PM 18.3840 -76.9962 155° Southeast  Level FlightAware Approximate
12:33PM 18.2715 -76.9408 155° Southeast  Level FlightAware Approximate
12:34PM 18.1590 -76.8855 155° Southeast  Level FlightAware Approximate
12:35PM 18.0464 -76.8303 155° Southeast  Level FlightAware Approximate
12:36PM 17.9339 -76.7751 155° Southeast  Level FlightAware Approximate
12:37PM 17.8491 -76.6819 130° Southeast  Level FlightAware Approximate
12:38PM 17.7693 -76.5820 130° Southeast  Level FlightAware Approximate
12:39PM 17.6895 -76.4821 130° Southeast  Level FlightAware Approximate
12:40PM 17.6096 -76.3823 130° Southeast  Level FlightAware Approximate
12:41PM 17.5296 -76.2827 130° Southeast  Level FlightAware Approximate
12:42PM 17.4496 -76.1831 130° Southeast  Level FlightAware Approximate
12:43PM 17.3696 -76.0836 130° Southeast  Level FlightAware Approximate
12:44PM 17.2895 -75.9841 130° Southeast  Level FlightAware Approximate
12:45PM 17.2094 -75.8848 130° Southeast  Level FlightAware Approximate
12:46PM 17.1292 -75.7856 130° Southeast  Level FlightAware Approximate
12:47PM 17.0490 -75.6864 130° Southeast  Level FlightAware Approximate
12:48PM 16.9687 -75.5873 130° Southeast  Level FlightAware Approximate
12:49PM 16.8883 -75.4883 130° Southeast  Level FlightAware Approximate
12:50PM 16.8079 -75.3895 130° Southeast  Level FlightAware Approximate
12:51PM 16.7275 -75.2906 130° Southeast  Level FlightAware Approximate
12:52PM 16.6470 -75.1919 130° Southeast  Level FlightAware Approximate
12:53PM 16.5665 -75.0932 130° Southeast  Level FlightAware Approximate
12:54PM 16.4860 -74.9947 130° Southeast  Level FlightAware Approximate
12:55PM 16.4053 -74.8962 130° Southeast  Level FlightAware Approximate
12:56PM 16.3247 -74.7978 130° Southeast  Level FlightAware Approximate
12:57PM 16.2440 -74.6994 131° Southeast  Level FlightAware Approximate
12:58PM 16.1632 -74.6012 131° Southeast  Level FlightAware Approximate
12:59PM 16.0824 -74.5030 131° Southeast  Level FlightAware Approximate
01:00PM 16.0016 -74.4049 131° Southeast  Level FlightAware Approximate
01:01PM 15.9207 -74.3069 131° Southeast  Level FlightAware Approximate
01:02PM 15.8398 -74.2090 131° Southeast  Level FlightAware Approximate
01:03PM 15.7588 -74.1112 131° Southeast  Level FlightAware Approximate
01:04PM 15.6778 -74.0134 131° Southeast  Level FlightAware Approximate
01:05PM 15.6005 -73.9124 128° Southeast  Level FlightAware Approximate
01:06PM 15.5239 -73.8110 128° Southeast  Level FlightAware Approximate
01:07PM 15.4472 -73.7096 128° Southeast  Level FlightAware Approximate
01:08PM 15.3705 -73.6084 128° Southeast  Level FlightAware Approximate
01:09PM 15.2937 -73.5072 128° Southeast  Level FlightAware Approximate
01:10PM 15.2168 -73.4061 128° Southeast  Level FlightAware Approximate
01:11PM 15.1399 -73.3050 128° Southeast  Level FlightAware Approximate
01:12PM 15.0630 -73.2040 128° Southeast  Level FlightAware Approximate
01:13PM 14.9860 -73.1031 128° Southeast  Level FlightAware Approximate
01:14PM 14.9090 -73.0023 128° Southeast  Level FlightAware Approximate
01:15PM 14.8320 -72.9015 128° Southeast  Level FlightAware Approximate
01:16PM 14.7549 -72.8008 128° Southeast  Level FlightAware Approximate
01:17PM 14.6777 -72.7002 128° Southeast  Level FlightAware Approximate
01:18PM 14.6005 -72.5997 128° Southeast  Level FlightAware Approximate
01:19PM 14.5233 -72.4992 128° Southeast  Level FlightAware Approximate
01:20PM 14.4460 -72.3988 128° Southeast  Level FlightAware Approximate
01:21PM 14.3687 -72.2985 128° Southeast  Level FlightAware Approximate
01:22PM 14.2914 -72.1982 129° Southeast  Level FlightAware Approximate
01:23PM 14.2140 -72.0980 129° Southeast  Level FlightAware Approximate
01:24PM 14.1365 -71.9979 129° Southeast  Level FlightAware Approximate
01:25PM 14.0590 -71.8979 129° Southeast  Level FlightAware Approximate
01:26PM 13.9815 -71.7979 129° Southeast  Level FlightAware Approximate
01:27PM 13.9039 -71.6979 129° Southeast  Level FlightAware Approximate
01:28PM 13.8263 -71.5981 129° Southeast  Level FlightAware Approximate
01:29PM 13.7487 -71.4983 129° Southeast  Level FlightAware Approximate
01:30PM 13.6711 -71.3985 129° Southeast  Level FlightAware Approximate
01:31PM 13.5902 -71.3020 124° Southeast  Level FlightAware Approximate
01:32PM 13.5129 -71.2021 131° Southeast  Level FlightAware Approximate
01:33PM 13.4321 -71.1052 131° Southeast  Level FlightAware Approximate
01:34PM 13.3519 -71.0078 130° Southeast  Level FlightAware Approximate
01:35PM 13.2719 -70.9101 130° Southeast  Level FlightAware Approximate
01:36PM 13.1940 -70.8108 128° Southeast  Level FlightAware Approximate
01:37PM 13.1169 -70.7109 128° Southeast  Level FlightAware Approximate
01:38PM 13.0397 -70.6110 128° Southeast  Level FlightAware Approximate